sensor_id;sensor_type;location;lat;lon;timestamp;temperature;humidity
24645;DHT22;12780;45.502;9.146;2022-12-24T00:00:31;9.70;99.90
24645;DHT22;12780;45.502;9.146;2022-12-24T00:02:57;9.90;99.90
24645;DHT22;12780;45.502;9.146;2022-12-24T00:05:23;9.80;99.90
24645;DHT22;12780;45.502;9.146;2022-12-24T00:07:48;9.90;99.90
24645;DHT22;12780;45.502;9.146;2022-12-24T00:10:14;9.90;99.90
24645;DHT22;12780;45.502;9.146;2022-12-24T00:12:39;10.00;99.90
24645;DHT22;12780;45.502;9.146;2022-12-24T00:15:06;10.20;99.90
24645;DHT22;12780;45.502;9.146;2022-12-24T00:17:32;10.20;99.90
24645;DHT22;12780;45.502;9.146;2022-12-24T00:19:58;10.20;99.90
24645;DHT22;12780;45.502;9.146;2022-12-24T00:22:23;10.30;99.90
24645;DHT22;12780;45.502;9.146;2022-12-24T00:24:49;10.30;99.90
24645;DHT22;12780;45.502;9.146;2022-12-24T00:27:15;10.20;99.90
24645;DHT22;12780;45.502;9.146;2022-12-24T00:29:40;10.20;99.90
24645;DHT22;12780;45.502;9.146;2022-12-24T00:32:06;10.10;99.90
24645;DHT22;12780;45.502;9.146;2022-12-24T00:34:35;10.00;99.90
24645;DHT22;12780;45.502;9.146;2022-12-24T00:37:01;10.00;99.90
24645;DHT22;12780;45.502;9.146;2022-12-24T00:39:27;10.00;99.90
24645;DHT22;12780;45.502;9.146;2022-12-24T00:41:52;10.10;99.90
24645;DHT22;12780;45.502;9.146;2022-12-24T00:44:18;10.10;99.90
24645;DHT22;12780;45.502;9.146;2022-12-24T00:46:43;10.20;99.90
24645;DHT22;12780;45.502;9.146;2022-12-24T00:49:11;10.20;99.90
24645;DHT22;12780;45.502;9.146;2022-12-24T00:51:37;10.20;99.90
24645;DHT22;12780;45.502;9.146;2022-12-24T00:54:03;10.30;99.90
24645;DHT22;12780;45.502;9.146;2022-12-24T00:56:29;10.30;99.90
24645;DHT22;12780;45.502;9.146;2022-12-24T00:58:55;10.20;99.90
24645;DHT22;12780;45.502;9.146;2022-12-24T01:01:21;10.20;99.90
24645;DHT22;12780;45.502;9.146;2022-12-24T01:03:47;10.20;99.90
24645;DHT22;12780;45.502;9.146;2022-12-24T01:06:18;10.20;99.90
24645;DHT22;12780;45.502;9.146;2022-12-24T01:08:44;10.30;99.90
24645;DHT22;12780;45.502;9.146;2022-12-24T01:11:11;10.30;99.90
24645;DHT22;12780;45.502;9.146;2022-12-24T01:13:37;10.30;99.90
24645;DHT22;12780;45.502;9.146;2022-12-24T01:16:16;10.30;99.90
24645;DHT22;12780;45.502;9.146;2022-12-24T01:18:42;10.30;99.90
24645;DHT22;12780;45.502;9.146;2022-12-24T01:21:07;10.40;99.90
24645;DHT22;12780;45.502;9.146;2022-12-24T01:23:33;10.20;99.90
24645;DHT22;12780;45.502;9.146;2022-12-24T01:26:00;10.10;99.90
24645;DHT22;12780;45.502;9.146;2022-12-24T01:28:26;10.00;99.90
24645;DHT22;12780;45.502;9.146;2022-12-24T01:30:51;9.90;99.90
24645;DHT22;12780;45.502;9.146;2022-12-24T01:33:17;9.90;99.90
24645;DHT22;12780;45.502;9.146;2022-12-24T01:35:42;10.00;99.90
24645;DHT22;12780;45.502;9.146;2022-12-24T01:38:09;10.00;99.90
24645;DHT22;12780;45.502;9.146;2022-12-24T01:40:37;9.80;99.90
24645;DHT22;12780;45.502;9.146;2022-12-24T01:43:21;9.80;99.90
24645;DHT22;12780;45.502;9.146;2022-12-24T01:48:39;9.60;99.90
24645;DHT22;12780;45.502;9.146;2022-12-24T01:51:16;9.60;99.90
24645;DHT22;12780;45.502;9.146;2022-12-24T01:53:48;9.70;99.90
24645;DHT22;12780;45.502;9.146;2022-12-24T01:56:15;9.80;99.90
24645;DHT22;12780;45.502;9.146;2022-12-24T01:58:45;10.00;99.90
24645;DHT22;12780;45.502;9.146;2022-12-24T02:01:13;10.10;99.90
24645;DHT22;12780;45.502;9.146;2022-12-24T02:03:38;10.10;99.90
24645;DHT22;12780;45.502;9.146;2022-12-24T02:06:04;10.00;99.90
24645;DHT22;12780;45.502;9.146;2022-12-24T02:08:30;10.00;99.90
24645;DHT22;12780;45.502;9.146;2022-12-24T02:11:11;10.00;99.90
24645;DHT22;12780;45.502;9.146;2022-12-24T02:13:37;10.00;99.90
24645;DHT22;12780;45.502;9.146;2022-12-24T02:24:45;10.10;99.90
24645;DHT22;12780;45.502;9.146;2022-12-24T02:27:53;10.10;99.90
24645;DHT22;12780;45.502;9.146;2022-12-24T02:30:23;10.30;99.90
24645;DHT22;12780;45.502;9.146;2022-12-24T02:38:25;10.50;99.90
24645;DHT22;12780;45.502;9.146;2022-12-24T02:43:43;10.60;99.90
24645;DHT22;12780;45.502;9.146;2022-12-24T02:46:23;10.50;99.90
24645;DHT22;12780;45.502;9.146;2022-12-24T02:48:50;10.50;99.90
24645;DHT22;12780;45.502;9.146;2022-12-24T02:51:22;10.50;99.90
24645;DHT22;12780;45.502;9.146;2022-12-24T02:53:48;10.60;99.90
24645;DHT22;12780;45.502;9.146;2022-12-24T02:59:12;10.60;99.90
24645;DHT22;12780;45.502;9.146;2022-12-24T03:04:28;10.60;99.90
24645;DHT22;12780;45.502;9.146;2022-12-24T03:07:28;10.60;99.90
24645;DHT22;12780;45.502;9.146;2022-12-24T03:10:06;10.60;99.90
24645;DHT22;12780;45.502;9.146;2022-12-24T03:12:37;10.70;99.90
24645;DHT22;12780;45.502;9.146;2022-12-24T03:15:06;10.70;99.90
24645;DHT22;12780;45.502;9.146;2022-12-24T03:17:34;10.70;99.90
24645;DHT22;12780;45.502;9.146;2022-12-24T03:20:02;10.70;99.90
24645;DHT22;12780;45.502;9.146;2022-12-24T03:22:28;10.60;99.90
24645;DHT22;12780;45.502;9.146;2022-12-24T03:24:54;10.60;99.90
24645;DHT22;12780;45.502;9.146;2022-12-24T03:27:20;10.60;99.90
24645;DHT22;12780;45.502;9.146;2022-12-24T03:29:46;10.50;99.90
24645;DHT22;12780;45.502;9.146;2022-12-24T03:32:12;10.50;99.90
24645;DHT22;12780;45.502;9.146;2022-12-24T03:34:38;10.60;99.90
24645;DHT22;12780;45.502;9.146;2022-12-24T03:37:03;10.60;99.90
24645;DHT22;12780;45.502;9.146;2022-12-24T03:39:29;10.60;99.90
24645;DHT22;12780;45.502;9.146;2022-12-24T03:41:54;10.60;99.90
24645;DHT22;12780;45.502;9.146;2022-12-24T03:44:20;10.60;99.90
24645;DHT22;12780;45.502;9.146;2022-12-24T03:46:45;10.60;99.90
24645;DHT22;12780;45.502;9.146;2022-12-24T03:49:11;10.60;99.90
24645;DHT22;12780;45.502;9.146;2022-12-24T03:51:36;10.70;99.90
24645;DHT22;12780;45.502;9.146;2022-12-24T03:54:02;10.70;99.90
24645;DHT22;12780;45.502;9.146;2022-12-24T03:56:28;10.80;99.90
24645;DHT22;12780;45.502;9.146;2022-12-24T03:58:53;10.80;99.90
24645;DHT22;12780;45.502;9.146;2022-12-24T04:01:19;10.80;99.90
24645;DHT22;12780;45.502;9.146;2022-12-24T04:03:45;10.80;99.90
24645;DHT22;12780;45.502;9.146;2022-12-24T04:06:13;10.90;99.90
24645;DHT22;12780;45.502;9.146;2022-12-24T04:08:40;10.90;99.90
24645;DHT22;12780;45.502;9.146;2022-12-24T04:11:07;10.80;99.90
24645;DHT22;12780;45.502;9.146;2022-12-24T04:13:33;10.80;99.90
24645;DHT22;12780;45.502;9.146;2022-12-24T04:16:01;10.70;99.90
24645;DHT22;12780;45.502;9.146;2022-12-24T04:18:27;10.60;99.90
24645;DHT22;12780;45.502;9.146;2022-12-24T04:20:53;10.50;99.90
24645;DHT22;12780;45.502;9.146;2022-12-24T04:23:19;10.40;99.90
24645;DHT22;12780;45.502;9.146;2022-12-24T04:25:44;10.40;99.90
24645;DHT22;12780;45.502;9.146;2022-12-24T04:28:10;10.40;99.90
24645;DHT22;12780;45.502;9.146;2022-12-24T04:30:37;10.50;99.90
24645;DHT22;12780;45.502;9.146;2022-12-24T04:33:03;10.40;99.90
24645;DHT22;12780;45.502;9.146;2022-12-24T04:35:29;10.40;99.90
24645;DHT22;12780;45.502;9.146;2022-12-24T04:37:54;10.30;99.90
24645;DHT22;12780;45.502;9.146;2022-12-24T04:40:20;10.10;99.90
24645;DHT22;12780;45.502;9.146;2022-12-24T04:42:45;10.00;99.90
24645;DHT22;12780;45.502;9.146;2022-12-24T04:45:11;10.00;99.90
24645;DHT22;12780;45.502;9.146;2022-12-24T04:47:36;10.00;99.90
24645;DHT22;12780;45.502;9.146;2022-12-24T04:50:02;9.90;99.90
24645;DHT22;12780;45.502;9.146;2022-12-24T04:52:28;9.90;99.90
24645;DHT22;12780;45.502;9.146;2022-12-24T04:54:53;9.90;99.90
24645;DHT22;12780;45.502;9.146;2022-12-24T04:57:19;10.00;99.90
24645;DHT22;12780;45.502;9.146;2022-12-24T04:59:45;10.10;99.90
24645;DHT22;12780;45.502;9.146;2022-12-24T05:02:10;10.10;99.90
24645;DHT22;12780;45.502;9.146;2022-12-24T05:04:36;10.20;99.90
24645;DHT22;12780;45.502;9.146;2022-12-24T05:07:02;10.30;99.90
24645;DHT22;12780;45.502;9.146;2022-12-24T05:09:28;10.30;99.90
24645;DHT22;12780;45.502;9.146;2022-12-24T05:11:53;10.30;99.90
24645;DHT22;12780;45.502;9.146;2022-12-24T05:14:19;10.40;99.90
24645;DHT22;12780;45.502;9.146;2022-12-24T05:16:44;10.40;99.90
24645;DHT22;12780;45.502;9.146;2022-12-24T05:19:10;10.40;99.90
24645;DHT22;12780;45.502;9.146;2022-12-24T05:21:36;10.40;99.90
24645;DHT22;12780;45.502;9.146;2022-12-24T05:24:01;10.30;99.90
24645;DHT22;12780;45.502;9.146;2022-12-24T05:26:49;10.60;99.90
24645;DHT22;12780;45.502;9.146;2022-12-24T05:29:16;10.60;99.90
24645;DHT22;12780;45.502;9.146;2022-12-24T05:31:42;10.70;99.90
24645;DHT22;12780;45.502;9.146;2022-12-24T05:34:10;10.70;99.90
24645;DHT22;12780;45.502;9.146;2022-12-24T05:36:35;10.80;99.90
24645;DHT22;12780;45.502;9.146;2022-12-24T05:39:01;10.80;99.90
24645;DHT22;12780;45.502;9.146;2022-12-24T05:41:27;10.80;99.90
24645;DHT22;12780;45.502;9.146;2022-12-24T05:43:52;10.80;99.90
24645;DHT22;12780;45.502;9.146;2022-12-24T05:46:20;10.80;99.90
24645;DHT22;12780;45.502;9.146;2022-12-24T05:48:46;10.80;99.90
24645;DHT22;12780;45.502;9.146;2022-12-24T05:51:13;10.80;99.90
24645;DHT22;12780;45.502;9.146;2022-12-24T05:53:40;10.90;99.90
24645;DHT22;12780;45.502;9.146;2022-12-24T05:56:07;10.80;99.90
24645;DHT22;12780;45.502;9.146;2022-12-24T05:58:34;10.80;99.90
24645;DHT22;12780;45.502;9.146;2022-12-24T06:01:01;10.70;99.90
24645;DHT22;12780;45.502;9.146;2022-12-24T06:03:27;10.60;99.90
24645;DHT22;12780;45.502;9.146;2022-12-24T06:06:04;10.40;99.90
24645;DHT22;12780;45.502;9.146;2022-12-24T06:08:30;10.40;99.90
24645;DHT22;12780;45.502;9.146;2022-12-24T06:10:58;10.40;99.90
24645;DHT22;12780;45.502;9.146;2022-12-24T06:13:24;10.50;99.90
24645;DHT22;12780;45.502;9.146;2022-12-24T06:15:54;10.50;99.90
24645;DHT22;12780;45.502;9.146;2022-12-24T06:18:20;10.50;99.90
24645;DHT22;12780;45.502;9.146;2022-12-24T06:20:49;10.40;99.90
24645;DHT22;12780;45.502;9.146;2022-12-24T06:23:15;10.40;99.90
24645;DHT22;12780;45.502;9.146;2022-12-24T06:25:41;10.40;99.90
24645;DHT22;12780;45.502;9.146;2022-12-24T06:28:06;10.30;99.90
24645;DHT22;12780;45.502;9.146;2022-12-24T06:30:32;10.20;99.90
24645;DHT22;12780;45.502;9.146;2022-12-24T06:32:57;10.20;99.90
24645;DHT22;12780;45.502;9.146;2022-12-24T06:35:23;10.30;99.90
24645;DHT22;12780;45.502;9.146;2022-12-24T06:37:48;10.40;99.90
24645;DHT22;12780;45.502;9.146;2022-12-24T06:40:14;10.40;99.90
24645;DHT22;12780;45.502;9.146;2022-12-24T06:42:39;10.40;99.90
24645;DHT22;12780;45.502;9.146;2022-12-24T06:45:05;10.40;99.90
24645;DHT22;12780;45.502;9.146;2022-12-24T06:47:31;10.50;99.90
24645;DHT22;12780;45.502;9.146;2022-12-24T06:49:56;10.50;99.90
24645;DHT22;12780;45.502;9.146;2022-12-24T06:52:22;10.50;99.90
24645;DHT22;12780;45.502;9.146;2022-12-24T06:54:48;10.40;99.90
24645;DHT22;12780;45.502;9.146;2022-12-24T06:57:13;10.40;99.90
24645;DHT22;12780;45.502;9.146;2022-12-24T06:59:39;10.30;99.90
24645;DHT22;12780;45.502;9.146;2022-12-24T07:02:04;10.10;99.90
24645;DHT22;12780;45.502;9.146;2022-12-24T07:04:30;10.00;99.90
24645;DHT22;12780;45.502;9.146;2022-12-24T07:06:56;9.90;99.90
24645;DHT22;12780;45.502;9.146;2022-12-24T07:09:22;10.00;99.90
24645;DHT22;12780;45.502;9.146;2022-12-24T07:11:47;10.10;99.90
24645;DHT22;12780;45.502;9.146;2022-12-24T07:14:13;10.20;99.90
24645;DHT22;12780;45.502;9.146;2022-12-24T07:16:38;10.20;99.90
24645;DHT22;12780;45.502;9.146;2022-12-24T07:19:04;10.40;99.90
24645;DHT22;12780;45.502;9.146;2022-12-24T07:21:29;10.40;99.90
24645;DHT22;12780;45.502;9.146;2022-12-24T07:23:55;10.30;99.90
24645;DHT22;12780;45.502;9.146;2022-12-24T07:26:20;10.40;99.90
24645;DHT22;12780;45.502;9.146;2022-12-24T07:28:46;10.30;99.90
24645;DHT22;12780;45.502;9.146;2022-12-24T07:31:11;10.40;99.90
24645;DHT22;12780;45.502;9.146;2022-12-24T07:33:37;10.50;99.90
24645;DHT22;12780;45.502;9.146;2022-12-24T07:36:07;10.60;99.90
24645;DHT22;12780;45.502;9.146;2022-12-24T07:38:34;10.60;99.90
24645;DHT22;12780;45.502;9.146;2022-12-24T07:41:00;10.70;99.90
24645;DHT22;12780;45.502;9.146;2022-12-24T07:43:26;10.70;99.90
24645;DHT22;12780;45.502;9.146;2022-12-24T07:45:56;10.60;99.90
24645;DHT22;12780;45.502;9.146;2022-12-24T07:48:22;10.40;99.90
24645;DHT22;12780;45.502;9.146;2022-12-24T07:50:49;10.30;99.90
24645;DHT22;12780;45.502;9.146;2022-12-24T07:53:14;10.30;99.90
24645;DHT22;12780;45.502;9.146;2022-12-24T07:55:40;10.30;99.90
24645;DHT22;12780;45.502;9.146;2022-12-24T07:58:05;10.30;99.90
24645;DHT22;12780;45.502;9.146;2022-12-24T08:00:31;10.40;99.90
24645;DHT22;12780;45.502;9.146;2022-12-24T08:02:57;10.40;99.90
24645;DHT22;12780;45.502;9.146;2022-12-24T08:05:25;10.40;99.90
24645;DHT22;12780;45.502;9.146;2022-12-24T08:07:51;10.40;99.90
24645;DHT22;12780;45.502;9.146;2022-12-24T08:10:16;10.40;99.90
24645;DHT22;12780;45.502;9.146;2022-12-24T08:12:42;10.50;99.90
24645;DHT22;12780;45.502;9.146;2022-12-24T08:15:08;10.40;99.90
24645;DHT22;12780;45.502;9.146;2022-12-24T08:17:33;10.50;99.90
24645;DHT22;12780;45.502;9.146;2022-12-24T08:19:59;10.60;99.90
24645;DHT22;12780;45.502;9.146;2022-12-24T08:22:24;10.70;99.90
24645;DHT22;12780;45.502;9.146;2022-12-24T08:24:50;10.80;99.90
24645;DHT22;12780;45.502;9.146;2022-12-24T08:27:15;10.70;99.90
24645;DHT22;12780;45.502;9.146;2022-12-24T08:29:41;10.70;99.90
24645;DHT22;12780;45.502;9.146;2022-12-24T08:32:06;10.50;99.90
24645;DHT22;12780;45.502;9.146;2022-12-24T08:34:32;10.50;99.90
24645;DHT22;12780;45.502;9.146;2022-12-24T08:36:58;10.30;99.90
24645;DHT22;12780;45.502;9.146;2022-12-24T08:39:23;10.40;99.90
24645;DHT22;12780;45.502;9.146;2022-12-24T08:41:49;10.40;99.90
24645;DHT22;12780;45.502;9.146;2022-12-24T08:44:15;10.70;99.90
24645;DHT22;12780;45.502;9.146;2022-12-24T08:46:40;10.70;99.90
24645;DHT22;12780;45.502;9.146;2022-12-24T08:49:06;10.70;99.90
24645;DHT22;12780;45.502;9.146;2022-12-24T08:51:31;10.60;99.90
24645;DHT22;12780;45.502;9.146;2022-12-24T08:53:57;10.60;99.90
24645;DHT22;12780;45.502;9.146;2022-12-24T08:56:22;10.60;99.90
24645;DHT22;12780;45.502;9.146;2022-12-24T08:58:48;10.70;99.90
24645;DHT22;12780;45.502;9.146;2022-12-24T09:01:16;10.60;99.90
24645;DHT22;12780;45.502;9.146;2022-12-24T09:03:43;10.50;99.90
24645;DHT22;12780;45.502;9.146;2022-12-24T09:06:09;10.50;99.90
24645;DHT22;12780;45.502;9.146;2022-12-24T09:08:34;10.60;99.90
24645;DHT22;12780;45.502;9.146;2022-12-24T09:11:09;10.90;99.90
24645;DHT22;12780;45.502;9.146;2022-12-24T09:13:36;10.70;99.90
24645;DHT22;12780;45.502;9.146;2022-12-24T09:16:02;10.70;99.90
24645;DHT22;12780;45.502;9.146;2022-12-24T09:18:29;10.70;99.90
24645;DHT22;12780;45.502;9.146;2022-12-24T09:21:02;10.70;99.90
24645;DHT22;12780;45.502;9.146;2022-12-24T09:23:29;10.80;99.90
24645;DHT22;12780;45.502;9.146;2022-12-24T09:25:54;10.80;99.90
24645;DHT22;12780;45.502;9.146;2022-12-24T09:28:21;10.80;99.90
24645;DHT22;12780;45.502;9.146;2022-12-24T09:30:57;10.80;99.90
24645;DHT22;12780;45.502;9.146;2022-12-24T09:33:23;10.70;99.90
24645;DHT22;12780;45.502;9.146;2022-12-24T09:35:52;10.70;99.90
24645;DHT22;12780;45.502;9.146;2022-12-24T09:38:19;10.70;99.90
24645;DHT22;12780;45.502;9.146;2022-12-24T09:40:45;10.70;99.90
24645;DHT22;12780;45.502;9.146;2022-12-24T09:43:17;10.70;99.90
24645;DHT22;12780;45.502;9.146;2022-12-24T09:46:03;10.70;99.90
24645;DHT22;12780;45.502;9.146;2022-12-24T09:48:32;10.70;99.90
24645;DHT22;12780;45.502;9.146;2022-12-24T09:51:03;10.70;99.90
24645;DHT22;12780;45.502;9.146;2022-12-24T09:53:50;10.70;99.90
24645;DHT22;12780;45.502;9.146;2022-12-24T09:56:20;10.70;99.90
24645;DHT22;12780;45.502;9.146;2022-12-24T09:58:58;10.80;99.90
24645;DHT22;12780;45.502;9.146;2022-12-24T10:01:25;10.80;99.90
24645;DHT22;12780;45.502;9.146;2022-12-24T10:03:51;10.90;99.90
24645;DHT22;12780;45.502;9.146;2022-12-24T10:06:21;11.00;99.90
24645;DHT22;12780;45.502;9.146;2022-12-24T10:11:42;11.10;99.90
24645;DHT22;12780;45.502;9.146;2022-12-24T10:23:27;11.50;99.90
24645;DHT22;12780;45.502;9.146;2022-12-24T10:26:14;11.40;99.90
24645;DHT22;12780;45.502;9.146;2022-12-24T10:31:10;11.10;99.90
24645;DHT22;12780;45.502;9.146;2022-12-24T10:33:43;11.20;99.90
24645;DHT22;12780;45.502;9.146;2022-12-24T10:36:24;11.10;99.90
24645;DHT22;12780;45.502;9.146;2022-12-24T10:38:51;11.10;99.90
24645;DHT22;12780;45.502;9.146;2022-12-24T10:41:16;11.20;99.90
24645;DHT22;12780;45.502;9.146;2022-12-24T10:43:44;11.30;99.90
24645;DHT22;12780;45.502;9.146;2022-12-24T10:46:28;11.40;99.90
24645;DHT22;12780;45.502;9.146;2022-12-24T10:49:02;11.50;99.90
24645;DHT22;12780;45.502;9.146;2022-12-24T10:51:42;11.50;99.90
24645;DHT22;12780;45.502;9.146;2022-12-24T10:54:23;11.40;99.90
24645;DHT22;12780;45.502;9.146;2022-12-24T10:56:51;11.50;99.90
24645;DHT22;12780;45.502;9.146;2022-12-24T11:01:59;11.60;99.90
24645;DHT22;12780;45.502;9.146;2022-12-24T11:04:30;11.60;99.90
24645;DHT22;12780;45.502;9.146;2022-12-24T11:07:04;11.60;99.90
24645;DHT22;12780;45.502;9.146;2022-12-24T11:09:32;11.70;99.90
24645;DHT22;12780;45.502;9.146;2022-12-24T11:12:00;11.70;99.90
24645;DHT22;12780;45.502;9.146;2022-12-24T11:14:35;11.70;99.90
24645;DHT22;12780;45.502;9.146;2022-12-24T11:17:01;11.70;99.90
24645;DHT22;12780;45.502;9.146;2022-12-24T11:19:36;11.80;99.90
24645;DHT22;12780;45.502;9.146;2022-12-24T11:25:07;11.70;99.90
24645;DHT22;12780;45.502;9.146;2022-12-24T11:27:44;11.80;99.90
24645;DHT22;12780;45.502;9.146;2022-12-24T11:32:40;11.80;99.90
24645;DHT22;12780;45.502;9.146;2022-12-24T11:35:07;11.80;99.90
24645;DHT22;12780;45.502;9.146;2022-12-24T11:37:32;11.80;99.90
24645;DHT22;12780;45.502;9.146;2022-12-24T11:40:01;11.70;99.90
24645;DHT22;12780;45.502;9.146;2022-12-24T11:42:30;11.70;99.90
24645;DHT22;12780;45.502;9.146;2022-12-24T11:44:56;11.70;99.90
24645;DHT22;12780;45.502;9.146;2022-12-24T11:47:38;11.80;99.90
24645;DHT22;12780;45.502;9.146;2022-12-24T11:50:27;11.80;99.90
24645;DHT22;12780;45.502;9.146;2022-12-24T11:53:14;11.70;99.90
24645;DHT22;12780;45.502;9.146;2022-12-24T11:55:54;11.60;99.90
24645;DHT22;12780;45.502;9.146;2022-12-24T12:01:16;11.80;99.90
24645;DHT22;12780;45.502;9.146;2022-12-24T12:06:46;11.70;99.90
24645;DHT22;12780;45.502;9.146;2022-12-24T12:09:31;11.70;99.90
24645;DHT22;12780;45.502;9.146;2022-12-24T12:12:05;11.60;99.90
24645;DHT22;12780;45.502;9.146;2022-12-24T12:14:38;11.60;99.90
24645;DHT22;12780;45.502;9.146;2022-12-24T12:20:15;11.90;99.90
24645;DHT22;12780;45.502;9.146;2022-12-24T12:22:54;11.70;99.90
24645;DHT22;12780;45.502;9.146;2022-12-24T12:25:36;11.80;99.90
24645;DHT22;12780;45.502;9.146;2022-12-24T12:28:07;11.80;99.90
24645;DHT22;12780;45.502;9.146;2022-12-24T12:30:38;11.90;99.90
24645;DHT22;12780;45.502;9.146;2022-12-24T12:33:24;11.80;99.90
24645;DHT22;12780;45.502;9.146;2022-12-24T12:35:51;11.80;99.90
24645;DHT22;12780;45.502;9.146;2022-12-24T12:38:22;11.80;99.90
24645;DHT22;12780;45.502;9.146;2022-12-24T12:41:00;11.90;99.90
24645;DHT22;12780;45.502;9.146;2022-12-24T12:46:18;12.00;99.90
24645;DHT22;12780;45.502;9.146;2022-12-24T12:48:54;12.00;99.90
24645;DHT22;12780;45.502;9.146;2022-12-24T12:51:29;12.10;99.90
24645;DHT22;12780;45.502;9.146;2022-12-24T12:56:48;12.20;99.90
24645;DHT22;12780;45.502;9.146;2022-12-24T13:01:57;12.20;99.90
24645;DHT22;12780;45.502;9.146;2022-12-24T13:20:47;12.20;99.90
24645;DHT22;12780;45.502;9.146;2022-12-24T13:23:17;12.20;99.90
24645;DHT22;12780;45.502;9.146;2022-12-24T13:25:49;12.20;99.90
24645;DHT22;12780;45.502;9.146;2022-12-24T13:28:16;12.30;99.90
24645;DHT22;12780;45.502;9.146;2022-12-24T13:30:42;12.30;99.90
24645;DHT22;12780;45.502;9.146;2022-12-24T13:33:12;12.20;99.90
24645;DHT22;12780;45.502;9.146;2022-12-24T13:35:58;12.10;99.90
24645;DHT22;12780;45.502;9.146;2022-12-24T13:40:53;12.10;99.90
24645;DHT22;12780;45.502;9.146;2022-12-24T13:43:18;12.10;99.90
24645;DHT22;12780;45.502;9.146;2022-12-24T13:45:49;12.10;99.90
24645;DHT22;12780;45.502;9.146;2022-12-24T13:50:52;12.10;99.90
24645;DHT22;12780;45.502;9.146;2022-12-24T13:53:41;11.90;99.90
24645;DHT22;12780;45.502;9.146;2022-12-24T13:56:08;11.80;99.90
24645;DHT22;12780;45.502;9.146;2022-12-24T13:58:38;11.90;99.90
24645;DHT22;12780;45.502;9.146;2022-12-24T14:01:10;11.80;99.90
24645;DHT22;12780;45.502;9.146;2022-12-24T14:03:49;12.00;99.90
24645;DHT22;12780;45.502;9.146;2022-12-24T14:06:37;11.80;99.90
24645;DHT22;12780;45.502;9.146;2022-12-24T14:09:19;11.80;99.90
24645;DHT22;12780;45.502;9.146;2022-12-24T14:14:30;11.80;99.90
24645;DHT22;12780;45.502;9.146;2022-12-24T14:17:40;11.80;99.90
24645;DHT22;12780;45.502;9.146;2022-12-24T14:19:53;11.80;99.90
24645;DHT22;12780;45.502;9.146;2022-12-24T14:25:03;11.70;99.90
24645;DHT22;12780;45.502;9.146;2022-12-24T14:30:19;11.60;99.90
24645;DHT22;12780;45.502;9.146;2022-12-24T14:32:46;11.60;99.90
24645;DHT22;12780;45.502;9.146;2022-12-24T14:35:18;11.60;99.90
24645;DHT22;12780;45.502;9.146;2022-12-24T14:37:48;11.60;99.90
24645;DHT22;12780;45.502;9.146;2022-12-24T14:40:21;11.70;99.90
24645;DHT22;12780;45.502;9.146;2022-12-24T14:43:19;11.50;99.90
24645;DHT22;12780;45.502;9.146;2022-12-24T14:46:06;11.50;99.90
24645;DHT22;12780;45.502;9.146;2022-12-24T14:49:21;11.40;99.90
24645;DHT22;12780;45.502;9.146;2022-12-24T15:05:19;11.10;99.90
24645;DHT22;12780;45.502;9.146;2022-12-24T15:10:28;11.30;99.90
24645;DHT22;12780;45.502;9.146;2022-12-24T15:12:56;11.20;99.90
24645;DHT22;12780;45.502;9.146;2022-12-24T15:15:22;11.20;99.90
24645;DHT22;12780;45.502;9.146;2022-12-24T15:17:49;11.20;99.90
24645;DHT22;12780;45.502;9.146;2022-12-24T15:20:20;11.20;99.90
24645;DHT22;12780;45.502;9.146;2022-12-24T15:22:50;11.20;99.90
24645;DHT22;12780;45.502;9.146;2022-12-24T15:25:29;11.10;99.90
24645;DHT22;12780;45.502;9.146;2022-12-24T15:27:55;11.10;99.90
24645;DHT22;12780;45.502;9.146;2022-12-24T15:30:25;11.20;99.90
24645;DHT22;12780;45.502;9.146;2022-12-24T15:32:52;11.20;99.90
24645;DHT22;12780;45.502;9.146;2022-12-24T15:40:51;11.10;99.90
24645;DHT22;12780;45.502;9.146;2022-12-24T15:43:17;11.10;99.90
24645;DHT22;12780;45.502;9.146;2022-12-24T15:45:44;11.10;99.90
24645;DHT22;12780;45.502;9.146;2022-12-24T15:48:11;11.10;99.90
24645;DHT22;12780;45.502;9.146;2022-12-24T15:50:44;11.00;99.90
24645;DHT22;12780;45.502;9.146;2022-12-24T15:56:13;11.00;99.90
24645;DHT22;12780;45.502;9.146;2022-12-24T15:58:51;11.00;99.90
24645;DHT22;12780;45.502;9.146;2022-12-24T16:01:23;10.90;99.90
24645;DHT22;12780;45.502;9.146;2022-12-24T16:06:15;11.00;99.90
24645;DHT22;12780;45.502;9.146;2022-12-24T16:08:42;11.00;99.90
24645;DHT22;12780;45.502;9.146;2022-12-24T16:11:18;10.90;99.90
24645;DHT22;12780;45.502;9.146;2022-12-24T16:13:54;10.90;99.90
24645;DHT22;12780;45.502;9.146;2022-12-24T16:16:31;10.90;99.90
24645;DHT22;12780;45.502;9.146;2022-12-24T16:18:58;10.90;99.90
24645;DHT22;12780;45.502;9.146;2022-12-24T16:21:29;10.90;99.90
24645;DHT22;12780;45.502;9.146;2022-12-24T16:23:57;10.90;99.90
24645;DHT22;12780;45.502;9.146;2022-12-24T16:26:28;10.90;99.90
24645;DHT22;12780;45.502;9.146;2022-12-24T16:28:54;10.90;99.90
24645;DHT22;12780;45.502;9.146;2022-12-24T16:31:35;11.00;99.90
24645;DHT22;12780;45.502;9.146;2022-12-24T16:34:02;10.90;99.90
24645;DHT22;12780;45.502;9.146;2022-12-24T16:36:28;10.90;99.90
24645;DHT22;12780;45.502;9.146;2022-12-24T16:38:56;10.80;99.90
24645;DHT22;12780;45.502;9.146;2022-12-24T16:41:40;10.80;99.90
24645;DHT22;12780;45.502;9.146;2022-12-24T16:44:24;10.80;99.90
24645;DHT22;12780;45.502;9.146;2022-12-24T16:46:49;10.70;99.90
24645;DHT22;12780;45.502;9.146;2022-12-24T16:49:18;10.70;99.90
24645;DHT22;12780;45.502;9.146;2022-12-24T16:51:45;10.80;99.90
24645;DHT22;12780;45.502;9.146;2022-12-24T16:54:11;10.80;99.90
24645;DHT22;12780;45.502;9.146;2022-12-24T16:56:41;10.80;99.90
24645;DHT22;12780;45.502;9.146;2022-12-24T16:59:19;10.80;99.90
24645;DHT22;12780;45.502;9.146;2022-12-24T17:01:46;10.80;99.90
24645;DHT22;12780;45.502;9.146;2022-12-24T17:04:12;10.90;99.90
24645;DHT22;12780;45.502;9.146;2022-12-24T17:06:38;10.90;99.90
24645;DHT22;12780;45.502;9.146;2022-12-24T17:09:04;10.80;99.90
24645;DHT22;12780;45.502;9.146;2022-12-24T17:11:30;10.80;99.90
24645;DHT22;12780;45.502;9.146;2022-12-24T17:13:55;10.80;99.90
24645;DHT22;12780;45.502;9.146;2022-12-24T17:16:21;10.80;99.90
24645;DHT22;12780;45.502;9.146;2022-12-24T17:18:48;10.80;99.90
24645;DHT22;12780;45.502;9.146;2022-12-24T17:21:15;10.80;99.90
24645;DHT22;12780;45.502;9.146;2022-12-24T17:23:41;10.80;99.90
24645;DHT22;12780;45.502;9.146;2022-12-24T17:26:08;10.80;99.90
24645;DHT22;12780;45.502;9.146;2022-12-24T17:28:34;10.80;99.90
24645;DHT22;12780;45.502;9.146;2022-12-24T17:31:04;10.80;99.90
24645;DHT22;12780;45.502;9.146;2022-12-24T17:33:30;10.80;99.90
24645;DHT22;12780;45.502;9.146;2022-12-24T17:35:55;10.70;99.90
24645;DHT22;12780;45.502;9.146;2022-12-24T17:38:22;10.70;99.90
24645;DHT22;12780;45.502;9.146;2022-12-24T17:40:47;10.60;99.90
24645;DHT22;12780;45.502;9.146;2022-12-24T17:43:13;10.60;99.90
24645;DHT22;12780;45.502;9.146;2022-12-24T17:45:39;10.60;99.90